Ana Sayfa
METAR-TAF:

METAR-TAF

Havaalanları :

El Dorado Uluslararası Havalimanı

Bogotá, Kolombiya

Enlem: 04-43N, Boylam: 074-09W, yükseklik: 2547 m

Güncel hava durumu gözlemi

Rapor saat 11:00 UTC de 56 dakika önce yapıldı.
Rüzgar değişken yönden 2 kt
Sıcaklık 7°C
Nem 100%
Basınç 1028 hPa
Görüş mesafesi 10 km veya daha fazla
1700 ft yükseklikte az bulutlu
Sığ sis

METAR: SKBO 101100Z VRB02KT 9999 MIFG FEW017 07/07 A3035

Saat: 06:56 (11:56 UTC)

Tahmin

Rapor saat 11:00 UTC de 56 dakika önce yapıldı.
Ayın 10'si saat 12 UTC'den ayın 11'si saat 12 UTC'ye kadar geçerli Tahmin
Rüzgar değişken yönden 2 kt
Görüş mesafesi 10 km veya daha fazla
1500 ft yükseklikte az bulutlu
Dönüşüyor
ayın 10'si saat 15 UTC'den ayın 10'si saat 17 UTC'ye kadar
Rüzgar batı/kuzeybatıdan 10 kt

TAF: SKBO 101100Z 1012/1112 VRB02KT 9999 FEW015 BECMG 1015/1017 29010KT TX21/1018Z TN07/1111Z

4.000'den fazla havaalanı için hava durumu gözlemleri ve tahminleri (METAR ve TAF raporları).

Kullanılabilir istasyonlar harita üzerinde sarı ve kırmızı noktalarla gösterilir.

İstasyonun adını görmek için fareyi noktanın üzerinde gezdirin.

Sonrasında hava gözlem ve tahminlerini görmek için tıklayın.

Haritayı değiştirmek için: yaklaştırmak için siyah artı işaretli yeşil düğmeye ve uzaklaştırmak için de eksi işaretli düğmeye hızla tıklayın; bitişik haritalar için yeşil okları kullanın.


METAR-TAF: